createdAt,value
2017-04-15T00:00:49.089Z,0
2017-04-15T00:02:11.540Z,0
2017-04-15T00:03:34.009Z,0
2017-04-15T00:04:56.157Z,0
2017-04-15T00:06:18.439Z,0
2017-04-15T00:07:41.378Z,0
2017-04-15T00:09:02.912Z,0
2017-04-15T00:10:25.198Z,0
2017-04-15T00:11:47.408Z,0
2017-04-15T00:13:09.268Z,0
2017-04-15T00:14:31.111Z,0
2017-04-15T00:15:53.569Z,0
2017-04-15T00:17:15.788Z,0
2017-04-15T00:18:37.546Z,0
2017-04-15T00:19:59.388Z,0
2017-04-15T00:21:21.229Z,0
2017-04-15T00:22:43.381Z,0
2017-04-15T00:24:05.778Z,0
2017-04-15T00:25:27.949Z,0
2017-04-15T00:26:50.421Z,0
2017-04-15T00:28:12.557Z,0
2017-04-15T00:29:34.008Z,0
2017-04-15T00:30:56.136Z,0
2017-04-15T00:32:18.359Z,0
2017-04-15T00:33:40.198Z,0
2017-04-15T00:35:02.590Z,0
2017-04-15T00:36:24.109Z,0
2017-04-15T00:37:46.263Z,0
2017-04-15T00:39:08.427Z,0
2017-04-15T00:40:30.615Z,0
2017-04-15T00:41:52.148Z,0
2017-04-15T00:43:13.977Z,0
2017-04-15T00:44:36.372Z,0
2017-04-15T00:45:58.759Z,0
2017-04-15T00:47:20.580Z,0
2017-04-15T00:48:42.107Z,0
2017-04-15T00:50:04.323Z,0
2017-04-15T00:51:26.855Z,0
2017-04-15T00:52:48.688Z,0
2017-04-15T00:54:10.518Z,0
2017-04-15T00:55:32.662Z,0
2017-04-15T00:56:54.758Z,0
2017-04-15T00:58:17.285Z,0
2017-04-15T00:59:39.118Z,0
2017-04-15T01:01:01.007Z,0
2017-04-15T01:02:23.097Z,0
2017-04-15T01:03:44.970Z,0
2017-04-15T01:05:06.780Z,0
2017-04-15T01:06:28.289Z,0
2017-04-15T01:07:50.408Z,0
2017-04-15T01:09:12.560Z,0
2017-04-15T01:10:34.385Z,0
2017-04-15T01:11:56.528Z,0
2017-04-15T01:13:18.977Z,0
2017-04-15T01:14:40.874Z,0
2017-04-15T01:16:02.912Z,0
2017-04-15T01:17:24.755Z,0
2017-04-15T01:18:46.938Z,0
2017-04-15T01:20:08.651Z,0
2017-04-15T01:21:30.288Z,0
2017-04-15T01:22:52.964Z,0
2017-04-15T01:24:15.048Z,0
2017-04-15T01:25:37.189Z,0
2017-04-15T01:26:59.005Z,0
2017-04-15T01:28:20.845Z,0
2017-04-15T01:29:43.465Z,0
2017-04-15T01:31:04.745Z,0
2017-04-15T01:32:26.887Z,0
2017-04-15T01:33:48.548Z,0
2017-04-15T01:35:10.920Z,0
2017-04-15T01:36:32.761Z,0
2017-04-15T01:37:54.610Z,0
2017-04-15T01:39:16.121Z,0
2017-04-15T01:40:38.208Z,0
2017-04-15T01:42:00.096Z,0
2017-04-15T01:43:22.048Z,0
2017-04-15T01:44:44.202Z,0
2017-04-15T01:46:05.970Z,0
2017-04-15T01:47:28.210Z,0
2017-04-15T01:48:50.035Z,0
2017-04-15T01:50:12.298Z,0
2017-04-15T01:51:34.108Z,0
2017-04-15T01:52:55.950Z,0
2017-04-15T01:54:18.558Z,0
2017-04-15T01:55:41.018Z,0
2017-04-15T01:57:03.465Z,0
2017-04-15T01:58:25.307Z,0
2017-04-15T01:59:46.818Z,0
2017-04-15T02:01:08.951Z,0
2017-04-15T02:02:31.080Z,0
2017-04-15T02:03:53.281Z,0
2017-04-15T02:05:14.476Z,0
2017-04-15T02:06:36.090Z,0
2017-04-15T02:07:58.654Z,0
2017-04-15T02:09:20.001Z,0
2017-04-15T02:10:41.506Z,0
2017-04-15T02:12:03.689Z,0
2017-04-15T02:13:26.538Z,0
2017-04-15T02:14:48.687Z,0
2017-04-15T02:16:10.198Z,0
2017-04-15T02:17:31.819Z,0
2017-04-15T02:18:54.692Z,0
2017-04-15T02:20:16.207Z,0
2017-04-15T02:21:38.342Z,0
2017-04-15T02:23:00.785Z,0
2017-04-15T02:24:22.721Z,0
2017-04-15T02:25:44.864Z,0
2017-04-15T02:27:07.328Z,0
2017-04-15T02:28:29.468Z,0
2017-04-15T02:29:51.668Z,0
2017-04-15T02:31:13.500Z,0
2017-04-15T02:32:35.626Z,0
2017-04-15T02:33:58.079Z,0
2017-04-15T02:35:20.197Z,0
2017-04-15T02:36:41.408Z,0
2017-04-15T02:38:03.035Z,0
2017-04-15T02:39:25.168Z,0
2017-04-15T02:40:47.698Z,0
2017-04-15T02:42:10.174Z,0
2017-04-15T02:43:31.918Z,0
2017-04-15T02:44:53.313Z,0
2017-04-15T02:46:15.068Z,0
2017-04-15T02:47:37.217Z,0
2017-04-15T02:48:59.060Z,0
2017-04-15T02:50:21.419Z,0
2017-04-15T02:51:43.514Z,0
2017-04-15T02:53:05.337Z,0
2017-04-15T02:54:26.975Z,0
2017-04-15T02:55:48.486Z,0
2017-04-15T02:57:10.417Z,0
2017-04-15T02:58:32.248Z,0
2017-04-15T02:59:54.447Z,0
2017-04-15T03:01:16.010Z,0
2017-04-15T03:02:38.681Z,0
2017-04-15T03:04:00.204Z,0
2017-04-15T03:05:22.660Z,0
2017-04-15T03:06:44.866Z,0
2017-04-15T03:08:07.568Z,0
2017-04-15T03:09:29.158Z,0
2017-04-15T03:10:50.987Z,0
2017-04-15T03:12:13.091Z,0
2017-04-15T03:13:35.221Z,0
2017-04-15T03:14:57.117Z,0
2017-04-15T03:16:18.368Z,0
2017-04-15T03:17:40.197Z,0
2017-04-15T03:19:02.633Z,0
2017-04-15T03:20:24.789Z,0
2017-04-15T03:21:46.934Z,0
2017-04-15T03:23:08.485Z,0
2017-04-15T03:24:30.717Z,0
2017-04-15T03:25:52.559Z,0
2017-04-15T03:27:14.452Z,0
2017-04-15T03:28:36.597Z,0
2017-04-15T03:29:58.778Z,0
2017-04-15T03:31:20.927Z,0
2017-04-15T03:32:43.059Z,0
2017-04-15T03:34:04.893Z,0
2017-04-15T03:35:26.971Z,0
2017-04-15T03:36:49.217Z,0
2017-04-15T03:38:11.049Z,0
2017-04-15T03:39:33.176Z,0
2017-04-15T03:40:55.045Z,0
2017-04-15T03:42:16.668Z,0
2017-04-15T03:43:38.835Z,0
2017-04-15T03:45:01.385Z,0
2017-04-15T03:46:23.775Z,0
2017-04-15T03:47:45.338Z,0
2017-04-15T03:49:06.908Z,0
2017-04-15T03:50:28.443Z,0
2017-04-15T03:51:50.918Z,0
2017-04-15T03:53:12.422Z,0
2017-04-15T03:54:34.282Z,0
2017-04-15T03:55:56.256Z,4
2017-04-15T03:57:18.524Z,4
2017-04-15T03:58:40.681Z,0
2017-04-15T04:00:02.532Z,4
2017-04-15T04:01:24.652Z,4
2017-04-15T04:02:46.486Z,4
2017-04-15T04:04:08.109Z,8
2017-04-15T04:05:30.264Z,12
2017-04-15T04:06:52.107Z,16
2017-04-15T04:08:13.967Z,16
2017-04-15T04:09:36.120Z,16
2017-04-15T04:10:57.628Z,20
2017-04-15T04:12:19.170Z,28
2017-04-15T04:13:41.609Z,32
2017-04-15T04:15:03.787Z,32
2017-04-15T04:16:25.937Z,48
2017-04-15T04:17:47.456Z,56
2017-04-15T04:19:08.950Z,76
2017-04-15T04:20:31.119Z,100
2017-04-15T04:21:52.937Z,112
2017-04-15T04:23:14.757Z,124
2017-04-15T04:24:37.570Z,116
2017-04-15T04:26:00.035Z,132
2017-04-15T04:27:21.869Z,140
2017-04-15T04:28:44.089Z,180
2017-04-15T04:30:06.158Z,204
2017-04-15T04:31:28.610Z,204
2017-04-15T04:32:50.561Z,176
2017-04-15T04:34:12.497Z,180
2017-04-15T04:35:34.341Z,204
2017-04-15T04:36:56.247Z,204
2017-04-15T04:38:18.387Z,228
2017-04-15T04:39:39.948Z,228
2017-04-15T04:41:02.518Z,244
2017-04-15T04:42:24.019Z,244
2017-04-15T04:43:46.228Z,236
2017-04-15T04:45:08.370Z,228
2017-04-15T04:46:30.519Z,200
2017-04-15T04:47:52.353Z,176
2017-04-15T04:49:14.191Z,192
2017-04-15T04:50:35.809Z,236
2017-04-15T04:51:58.515Z,364
2017-04-15T04:53:20.471Z,344
2017-04-15T04:54:42.289Z,472
2017-04-15T04:56:03.828Z,644
2017-04-15T04:57:26.259Z,744
2017-04-15T04:58:47.770Z,796
2017-04-15T05:00:10.438Z,976
2017-04-15T05:01:31.947Z,1228
2017-04-15T05:02:54.087Z,1364
2017-04-15T05:04:16.220Z,1108
2017-04-15T05:05:38.365Z,928
2017-04-15T05:07:00.687Z,680
2017-04-15T05:08:22.747Z,652
2017-04-15T05:09:44.277Z,716
2017-04-15T05:11:05.777Z,776
2017-04-15T05:12:27.299Z,1040
2017-04-15T05:13:48.869Z,928
2017-04-15T05:15:11.338Z,916
2017-04-15T05:16:33.491Z,1176
2017-04-15T05:17:55.367Z,888
2017-04-15T05:19:18.138Z,932
2017-04-15T05:20:39.694Z,824
2017-04-15T05:22:02.175Z,680
2017-04-15T05:23:23.676Z,672
2017-04-15T05:24:45.864Z,836
2017-04-15T05:26:07.992Z,740
2017-04-15T05:27:29.919Z,672
2017-04-15T05:28:51.761Z,676
2017-04-15T05:30:13.949Z,652
2017-04-15T05:31:36.218Z,840
2017-04-15T05:32:58.128Z,596
2017-04-15T05:34:20.738Z,572
2017-04-15T05:35:42.933Z,784
2017-04-15T05:37:05.438Z,920
2017-04-15T05:38:27.259Z,796
2017-04-15T05:39:49.155Z,500
2017-04-15T05:41:11.663Z,736
2017-04-15T05:42:33.245Z,728
2017-04-15T05:43:55.475Z,872
2017-04-15T05:45:18.068Z,672
2017-04-15T05:46:40.839Z,844
2017-04-15T05:48:02.987Z,1084
2017-04-15T05:49:25.215Z,1268
2017-04-15T05:50:46.727Z,1384
2017-04-15T05:52:08.187Z,1844
2017-04-15T05:53:30.327Z,1488
2017-04-15T05:54:52.409Z,2120
2017-04-15T05:56:14.544Z,1404
2017-04-15T05:57:36.995Z,1000
2017-04-15T05:58:59.458Z,1180
2017-04-15T06:00:21.275Z,1376
2017-04-15T06:01:42.817Z,1320
2017-04-15T06:03:05.009Z,1172
2017-04-15T06:04:27.166Z,1344
2017-04-15T06:05:48.674Z,1092
2017-04-15T06:07:10.811Z,1376
2017-04-15T06:08:33.466Z,2076
2017-04-15T06:09:55.615Z,2032
2017-04-15T06:11:17.847Z,1808
2017-04-15T06:12:39.695Z,1744
2017-04-15T06:14:01.510Z,2076
2017-04-15T06:15:23.638Z,2004
2017-04-15T06:16:46.102Z,1600
2017-04-15T06:18:07.960Z,1800
2017-04-15T06:19:30.432Z,1788
2017-04-15T06:20:52.378Z,1888
2017-04-15T06:22:14.503Z,2112
2017-04-15T06:23:37.020Z,1792
2017-04-15T06:24:58.833Z,2040
2017-04-15T06:26:20.977Z,1744
2017-04-15T06:27:42.793Z,2116
2017-04-15T06:29:04.624Z,2988
2017-04-15T06:30:26.378Z,3328
2017-04-15T06:31:48.527Z,3088
2017-04-15T06:33:10.037Z,4004
2017-04-15T06:34:32.318Z,3648
2017-04-15T06:35:55.040Z,4348
2017-04-15T06:37:17.499Z,4052
2017-04-15T06:38:39.636Z,2680
2017-04-15T06:40:01.158Z,3064
2017-04-15T06:41:23.607Z,4296
2017-04-15T06:42:45.441Z,4168
2017-04-15T06:44:07.297Z,4432
2017-04-15T06:45:29.797Z,4200
2017-04-15T06:46:51.909Z,3648
2017-04-15T06:48:13.628Z,3404
2017-04-15T06:49:36.114Z,2088
2017-04-15T06:50:58.513Z,2588
2017-04-15T06:52:20.968Z,5380
2017-04-15T06:53:43.436Z,5852
2017-04-15T06:55:05.569Z,4472
2017-04-15T06:56:27.415Z,5252
2017-04-15T06:57:49.644Z,5132
2017-04-15T06:59:11.497Z,4984
2017-04-15T07:00:33.341Z,4512
2017-04-15T07:01:55.158Z,4676
2017-04-15T07:03:16.994Z,5736
2017-04-15T07:04:39.489Z,7376
2017-04-15T07:06:01.948Z,10832
2017-04-15T07:07:24.100Z,12104
2017-04-15T07:08:46.821Z,13784
2017-04-15T07:10:08.627Z,10648
2017-04-15T07:11:30.574Z,9968
2017-04-15T07:12:52.159Z,6276
2017-04-15T07:14:14.262Z,7280
2017-04-15T07:15:36.731Z,7656
2017-04-15T07:16:58.568Z,8316
2017-04-15T07:18:20.736Z,7964
2017-04-15T07:19:42.569Z,9616
2017-04-15T07:21:04.574Z,10796
2017-04-15T07:22:26.492Z,9832
2017-04-15T07:23:48.314Z,9292
2017-04-15T07:25:10.789Z,6404
2017-04-15T07:26:33.017Z,8824
2017-04-15T07:27:54.587Z,8312
2017-04-15T07:29:16.437Z,6852
2017-04-15T07:30:38.816Z,6244
2017-04-15T07:32:01.088Z,4716
2017-04-15T07:33:22.618Z,4116
2017-04-15T07:34:44.116Z,3784
2017-04-15T07:36:06.587Z,2812
2017-04-15T07:37:27.846Z,3988
2017-04-15T07:38:49.677Z,5464
2017-04-15T07:40:11.670Z,4760
2017-04-15T07:41:34.431Z,7292
2017-04-15T07:42:56.598Z,10980
2017-04-15T07:44:18.107Z,7872
2017-04-15T07:45:40.500Z,10424
2017-04-15T07:47:02.915Z,15288
2017-04-15T07:48:24.767Z,21376
2017-04-15T07:49:46.993Z,24352
2017-04-15T07:51:08.558Z,19232
2017-04-15T07:52:30.937Z,16452
2017-04-15T07:53:52.458Z,19904
2017-04-15T07:55:14.631Z,20960
2017-04-15T07:56:36.531Z,20032
2017-04-15T07:57:58.818Z,16336
2017-04-15T07:59:21.107Z,16016
2017-04-15T08:00:43.254Z,13916
2017-04-15T08:02:05.099Z,17824
2017-04-15T08:03:27.516Z,20864
2017-04-15T08:04:49.028Z,13652
2017-04-15T08:06:10.878Z,11144
2017-04-15T08:07:33.363Z,16416
2017-04-15T08:08:55.747Z,16896
2017-04-15T08:10:17.267Z,15868
2017-04-15T08:11:39.479Z,15020
2017-04-15T08:13:02.057Z,6496
2017-04-15T08:14:24.237Z,7800
2017-04-15T08:15:46.479Z,9872
2017-04-15T08:17:08.646Z,16864
2017-04-15T08:18:31.145Z,20960
2017-04-15T08:19:53.583Z,20768
2017-04-15T08:21:15.817Z,12732
2017-04-15T08:22:37.975Z,15320
2017-04-15T08:23:59.855Z,11872
2017-04-15T08:25:22.831Z,15712
2017-04-15T08:26:45.180Z,15500
2017-04-15T08:28:07.088Z,15548
2017-04-15T08:29:29.328Z,16104
2017-04-15T08:30:51.776Z,14904
2017-04-15T08:32:13.627Z,20064
2017-04-15T08:33:35.488Z,20576
2017-04-15T08:34:57.660Z,20160
2017-04-15T08:36:20.120Z,18368
2017-04-15T08:37:42.288Z,14612
2017-04-15T08:39:04.771Z,17024
2017-04-15T08:40:27.374Z,14028
2017-04-15T08:41:49.296Z,13908
2017-04-15T08:43:11.150Z,17056
2017-04-15T08:44:33.321Z,15004
2017-04-15T08:45:55.488Z,14252
2017-04-15T08:47:17.917Z,14676
2017-04-15T08:48:39.478Z,12764
2017-04-15T08:50:01.306Z,11520
2017-04-15T08:51:22.817Z,10532
2017-04-15T08:52:45.251Z,12144
2017-04-15T08:54:07.779Z,15100
2017-04-15T08:55:29.313Z,12728
2017-04-15T08:56:51.468Z,12872
2017-04-15T08:58:13.868Z,13164
2017-04-15T08:59:35.755Z,13412
2017-04-15T09:00:57.599Z,14528
2017-04-15T09:02:19.157Z,14820
2017-04-15T09:03:40.927Z,14700
2017-04-15T09:05:03.191Z,14208
2017-04-15T09:06:25.047Z,14556
2017-04-15T09:07:47.348Z,16080
2017-04-15T09:09:09.618Z,14708
2017-04-15T09:10:31.466Z,15376
2017-04-15T09:11:52.658Z,12880
2017-04-15T09:13:14.509Z,15348
2017-04-15T09:14:37.008Z,16084
2017-04-15T09:15:58.222Z,17696
2017-04-15T09:17:20.378Z,16576
2017-04-15T09:18:42.588Z,13276
2017-04-15T09:20:05.560Z,12600
2017-04-15T09:21:27.370Z,11332
2017-04-15T09:22:49.205Z,10552
2017-04-15T09:24:11.378Z,10624
2017-04-15T09:25:33.779Z,11700
2017-04-15T09:26:55.118Z,12676
2017-04-15T09:28:16.322Z,11000
2017-04-15T09:29:38.479Z,12296
2017-04-15T09:31:00.878Z,12420
2017-04-15T09:32:23.366Z,11932
2017-04-15T09:33:45.744Z,11304
2017-04-15T09:35:07.910Z,11028
2017-04-15T09:36:30.392Z,11924
2017-04-15T09:37:52.568Z,13108
2017-04-15T09:39:14.403Z,16092
2017-04-15T09:40:36.598Z,19520
2017-04-15T09:41:59.417Z,19424
2017-04-15T09:43:21.578Z,15400
2017-04-15T09:44:44.069Z,13948
2017-04-15T09:46:06.372Z,14800
2017-04-15T09:47:28.909Z,18048
2017-04-15T09:48:51.069Z,13988
2017-04-15T09:50:13.236Z,9932
2017-04-15T09:51:34.757Z,9336
2017-04-15T09:52:57.218Z,10740
2017-04-15T09:54:19.674Z,10576
2017-04-15T09:55:41.661Z,13340
2017-04-15T09:57:03.509Z,13872
2017-04-15T09:58:26.595Z,14052
2017-04-15T09:59:48.110Z,11164
2017-04-15T10:01:10.319Z,8948
2017-04-15T10:02:32.488Z,9956
2017-04-15T10:03:54.941Z,10188
2017-04-15T10:05:16.775Z,13036
2017-04-15T10:06:39.249Z,17280
2017-04-15T10:08:01.418Z,19872
2017-04-15T10:09:24.122Z,20480
2017-04-15T10:10:46.087Z,20736
2017-04-15T10:12:08.344Z,16960
2017-04-15T10:13:30.318Z,14164
2017-04-15T10:14:52.798Z,12072
2017-04-15T10:16:14.422Z,14188
2017-04-15T10:17:36.637Z,16128
2017-04-15T10:18:58.482Z,12904
2017-04-15T10:20:20.908Z,10256
2017-04-15T10:21:42.758Z,9688
2017-04-15T10:23:05.237Z,10516
2017-04-15T10:24:27.092Z,12072
2017-04-15T10:25:48.869Z,12528
2017-04-15T10:27:10.713Z,13740
2017-04-15T10:28:32.918Z,16292
2017-04-15T10:29:54.753Z,16576
2017-04-15T10:31:16.951Z,15400
2017-04-15T10:32:38.533Z,15512
2017-04-15T10:34:01.140Z,15908
2017-04-15T10:35:23.304Z,13768
2017-04-15T10:36:45.077Z,11768
2017-04-15T10:38:07.260Z,11920
2017-04-15T10:39:29.466Z,11248
2017-04-15T10:40:51.398Z,13024
2017-04-15T10:42:13.218Z,13060
2017-04-15T10:43:35.064Z,12280
2017-04-15T10:44:57.409Z,12784
2017-04-15T10:46:19.229Z,14172
2017-04-15T10:47:41.629Z,13548
2017-04-15T10:49:04.127Z,12476
2017-04-15T10:50:26.719Z,11600
2017-04-15T10:51:48.633Z,9576
2017-04-15T10:53:10.456Z,9324
2017-04-15T10:54:32.342Z,10180
2017-04-15T10:55:54.502Z,12892
2017-04-15T10:57:16.358Z,13704
2017-04-15T10:58:38.824Z,18176
2017-04-15T11:00:00.977Z,21248
2017-04-15T11:01:23.242Z,10808
2017-04-15T11:02:45.774Z,5092
2017-04-15T11:04:08.330Z,4084
2017-04-15T11:05:30.816Z,4084
2017-04-15T11:06:52.957Z,4304
2017-04-15T11:08:15.127Z,4724
2017-04-15T11:09:37.713Z,4676
2017-04-15T11:10:59.930Z,4968
2017-04-15T11:12:22.394Z,7112
2017-04-15T11:13:43.904Z,9408
2017-04-15T11:15:06.727Z,11680
2017-04-15T11:16:28.588Z,12272
2017-04-15T11:17:51.089Z,11804
2017-04-15T11:19:13.268Z,12908
2017-04-15T11:20:36.288Z,14732
2017-04-15T11:21:58.461Z,16928
2017-04-15T11:23:20.765Z,18176
2017-04-15T11:24:42.938Z,19488
2017-04-15T11:26:05.335Z,18048
2017-04-15T11:27:27.554Z,18432
2017-04-15T11:28:49.387Z,19424
2017-04-15T11:30:11.527Z,15952
2017-04-15T11:31:33.652Z,14308
2017-04-15T11:32:55.809Z,13904
2017-04-15T11:34:18.002Z,13824
2017-04-15T11:35:40.156Z,13664
2017-04-15T11:37:02.327Z,13312
2017-04-15T11:38:24.617Z,13052
2017-04-15T11:39:46.766Z,12864
2017-04-15T11:41:08.937Z,13032
2017-04-15T11:42:31.336Z,13860
2017-04-15T11:43:53.501Z,15708
2017-04-15T11:45:15.655Z,18656
2017-04-15T11:46:37.805Z,21728
2017-04-15T11:48:00.550Z,22912
2017-04-15T11:49:22.716Z,19872
2017-04-15T11:50:44.549Z,11992
2017-04-15T11:52:06.736Z,9956
2017-04-15T11:53:28.597Z,11864
2017-04-15T11:54:50.499Z,9940
2017-04-15T11:56:12.689Z,10372
2017-04-15T11:57:35.165Z,12260
2017-04-15T11:58:57.680Z,10336
2017-04-15T12:00:20.163Z,9632
2017-04-15T12:01:42.348Z,9072
2017-04-15T12:03:04.499Z,9608
2017-04-15T12:04:27.385Z,11052
2017-04-15T12:05:49.549Z,12352
2017-04-15T12:07:11.866Z,13832
2017-04-15T12:08:33.388Z,13216
2017-04-15T12:09:55.869Z,12224
2017-04-15T12:11:18.028Z,12980
2017-04-15T12:12:39.932Z,14504
2017-04-15T12:14:02.110Z,15764
2017-04-15T12:15:24.894Z,17600
2017-04-15T12:16:47.068Z,16768
2017-04-15T12:18:09.238Z,13024
2017-04-15T12:19:31.493Z,9296
2017-04-15T12:20:53.440Z,7864
2017-04-15T12:22:15.775Z,7312
2017-04-15T12:23:37.671Z,7456
2017-04-15T12:24:59.892Z,6444
2017-04-15T12:26:22.018Z,6056
2017-04-15T12:27:44.166Z,5968
2017-04-15T12:29:06.325Z,5972
2017-04-15T12:30:28.852Z,5980
2017-04-15T12:31:51.709Z,5912
2017-04-15T12:33:13.997Z,5856
2017-04-15T12:34:36.174Z,5760
2017-04-15T12:35:58.452Z,5744
2017-04-15T12:37:21.366Z,5732
2017-04-15T12:38:43.294Z,5884
2017-04-15T12:40:05.147Z,6340
2017-04-15T12:41:27.644Z,6260
2017-04-15T12:42:49.818Z,6472
2017-04-15T12:44:11.637Z,8064
2017-04-15T12:45:33.819Z,8820
2017-04-15T12:46:55.987Z,9164
2017-04-15T12:48:18.182Z,9180
2017-04-15T12:49:40.392Z,7560
2017-04-15T12:51:02.558Z,8232
2017-04-15T12:52:25.159Z,7980
2017-04-15T12:53:48.224Z,8916
2017-04-15T12:55:10.383Z,10916
2017-04-15T12:56:32.548Z,12200
2017-04-15T12:57:54.778Z,13728
2017-04-15T12:59:17.585Z,13228
2017-04-15T13:00:39.745Z,9908
2017-04-15T13:02:01.922Z,8604
2017-04-15T13:03:24.077Z,8204
2017-04-15T13:04:46.723Z,10448
2017-04-15T13:06:08.577Z,10864
2017-04-15T13:07:30.807Z,10584
2017-04-15T13:08:53.295Z,10856
2017-04-15T13:10:16.165Z,10868
2017-04-15T13:11:38.319Z,10528
2017-04-15T13:13:00.517Z,11656
2017-04-15T13:14:22.721Z,11808
2017-04-15T13:15:45.149Z,10008
2017-04-15T13:17:06.365Z,7492
2017-04-15T13:18:27.896Z,7844
2017-04-15T13:19:49.415Z,9056
2017-04-15T13:21:11.534Z,8792
2017-04-15T13:22:33.720Z,7844
2017-04-15T13:23:55.286Z,7740
2017-04-15T13:25:17.563Z,7364
2017-04-15T13:26:39.676Z,7504
2017-04-15T13:28:01.847Z,7304
2017-04-15T13:29:23.734Z,6680
2017-04-15T13:30:45.631Z,6832
2017-04-15T13:32:08.034Z,8000
2017-04-15T13:33:29.869Z,7616
2017-04-15T13:34:51.737Z,7832
2017-04-15T13:36:13.566Z,8748
2017-04-15T13:37:36.407Z,8548
2017-04-15T13:38:58.572Z,8708
2017-04-15T13:40:21.033Z,8888
2017-04-15T13:41:43.311Z,9012
2017-04-15T13:43:05.728Z,9572
2017-04-15T13:44:28.302Z,9188
2017-04-15T13:45:49.850Z,9188
2017-04-15T13:47:12.131Z,10048
2017-04-15T13:48:34.437Z,9900
2017-04-15T13:49:56.648Z,10244
2017-04-15T13:51:19.120Z,10648
2017-04-15T13:52:40.972Z,9580
2017-04-15T13:54:02.888Z,9476
2017-04-15T13:55:25.398Z,10424
2017-04-15T13:56:47.666Z,10640
2017-04-15T13:58:09.210Z,9932
2017-04-15T13:59:31.931Z,10488
2017-04-15T14:00:53.752Z,11916
2017-04-15T14:02:15.895Z,13672
2017-04-15T14:03:38.098Z,11544
2017-04-15T14:05:00.102Z,9660
2017-04-15T14:06:22.267Z,11120
2017-04-15T14:07:45.149Z,12312
2017-04-15T14:09:07.408Z,12248
2017-04-15T14:10:29.925Z,12008
2017-04-15T14:11:52.091Z,10948
2017-04-15T14:13:13.934Z,10412
2017-04-15T14:14:36.518Z,10624
2017-04-15T14:15:58.907Z,11448
2017-04-15T14:17:21.459Z,11740
2017-04-15T14:18:43.687Z,11456
2017-04-15T14:20:06.286Z,11028
2017-04-15T14:21:28.831Z,10280
2017-04-15T14:22:51.346Z,10400
2017-04-15T14:24:13.516Z,11456
2017-04-15T14:25:36.007Z,13640
2017-04-15T14:26:58.229Z,12552
2017-04-15T14:28:20.375Z,11796
2017-04-15T14:29:42.596Z,12264
2017-04-15T14:31:04.828Z,11780
2017-04-15T14:32:27.687Z,11948
2017-04-15T14:33:49.638Z,12916
2017-04-15T14:35:11.809Z,13164
2017-04-15T14:36:34.286Z,12496
2017-04-15T14:37:56.853Z,12096
2017-04-15T14:39:19.006Z,11168
2017-04-15T14:40:40.957Z,12344
2017-04-15T14:42:02.478Z,13004
2017-04-15T14:43:24.897Z,11740
2017-04-15T14:44:46.741Z,10212
2017-04-15T14:46:08.941Z,8740
2017-04-15T14:47:31.154Z,7288
2017-04-15T14:48:53.564Z,7072
2017-04-15T14:50:15.847Z,7276
2017-04-15T14:51:38.006Z,6952
2017-04-15T14:52:59.640Z,6884
2017-04-15T14:54:21.735Z,7164
2017-04-15T14:55:43.896Z,7048
2017-04-15T14:57:06.381Z,6220
2017-04-15T14:58:28.882Z,4380
2017-04-15T14:59:51.786Z,3132
2017-04-15T15:01:13.948Z,2156
2017-04-15T15:02:35.469Z,1464
2017-04-15T15:03:57.959Z,1280
2017-04-15T15:05:20.346Z,1328
2017-04-15T15:06:42.518Z,1568
2017-04-15T15:08:04.047Z,2932
2017-04-15T15:09:26.557Z,3816
2017-04-15T15:10:48.649Z,4688
2017-04-15T15:12:10.775Z,4464
2017-04-15T15:13:32.928Z,4424
2017-04-15T15:14:55.090Z,4780
2017-04-15T15:16:17.915Z,5700
2017-04-15T15:17:39.456Z,6832
2017-04-15T15:19:02.024Z,6432
2017-04-15T15:20:23.849Z,4820
2017-04-15T15:21:46.003Z,5120
2017-04-15T15:23:08.486Z,4136
2017-04-15T15:24:30.327Z,4524
2017-04-15T15:25:51.515Z,6304
2017-04-15T15:27:13.661Z,9440
2017-04-15T15:28:35.196Z,10804
2017-04-15T15:29:57.759Z,10728
2017-04-15T15:31:19.613Z,12652
2017-04-15T15:32:42.088Z,11220
2017-04-15T15:34:04.559Z,8936
2017-04-15T15:35:26.436Z,9260
2017-04-15T15:36:48.323Z,8888
2017-04-15T15:38:11.145Z,7072
2017-04-15T15:39:32.983Z,5724
2017-04-15T15:40:55.145Z,5292
2017-04-15T15:42:17.607Z,5244
2017-04-15T15:43:40.124Z,4860
2017-04-15T15:45:01.951Z,4712
2017-04-15T15:46:24.113Z,4704
2017-04-15T15:47:46.388Z,5184
2017-04-15T15:49:08.592Z,6264
2017-04-15T15:50:30.848Z,8160
2017-04-15T15:51:52.457Z,9452
2017-04-15T15:53:15.057Z,9116
2017-04-15T15:54:37.842Z,8032
2017-04-15T15:56:00.010Z,7756
2017-04-15T15:57:22.517Z,6332
2017-04-15T15:58:44.358Z,6320
2017-04-15T16:00:06.836Z,5600
2017-04-15T16:01:28.389Z,5368
2017-04-15T16:02:50.965Z,6188
2017-04-15T16:04:12.600Z,5300
2017-04-15T16:05:33.728Z,5920
2017-04-15T16:06:55.921Z,5376
2017-04-15T16:08:18.118Z,4312
2017-04-15T16:09:39.666Z,4176
2017-04-15T16:11:01.915Z,4472
2017-04-15T16:12:24.078Z,4508
2017-04-15T16:13:46.242Z,4300
2017-04-15T16:15:08.456Z,3684
2017-04-15T16:16:31.298Z,3452
2017-04-15T16:17:53.476Z,3728
2017-04-15T16:19:15.953Z,3228
2017-04-15T16:20:37.157Z,2880
2017-04-15T16:21:59.246Z,2728
2017-04-15T16:23:20.879Z,3056
2017-04-15T16:24:43.035Z,3636
2017-04-15T16:26:04.892Z,4996
2017-04-15T16:27:27.409Z,5492
2017-04-15T16:28:49.279Z,4748
2017-04-15T16:30:11.757Z,4368
2017-04-15T16:31:33.913Z,4032
2017-04-15T16:32:56.387Z,3248
2017-04-15T16:34:18.622Z,2504
2017-04-15T16:35:41.176Z,1256
2017-04-15T16:37:03.053Z,772
2017-04-15T16:38:25.206Z,896
2017-04-15T16:39:47.362Z,1904
2017-04-15T16:41:09.505Z,3948
2017-04-15T16:42:32.008Z,6312
2017-04-15T16:43:53.876Z,9936
2017-04-15T16:45:15.733Z,12416
2017-04-15T16:46:38.318Z,11616
2017-04-15T16:48:00.482Z,8380
2017-04-15T16:49:22.595Z,6160
2017-04-15T16:50:45.057Z,5196
2017-04-15T16:52:07.515Z,4716
2017-04-15T16:53:29.666Z,4436
2017-04-15T16:54:52.051Z,4236
2017-04-15T16:56:13.591Z,4048
2017-04-15T16:57:35.734Z,3976
2017-04-15T16:58:57.387Z,3872
2017-04-15T17:00:19.516Z,3848
2017-04-15T17:01:41.394Z,3764
2017-04-15T17:03:03.863Z,3728
2017-04-15T17:04:26.016Z,3728
2017-04-15T17:05:48.140Z,3724
2017-04-15T17:07:10.690Z,3640
2017-04-15T17:08:33.267Z,3648
2017-04-15T17:09:55.787Z,3604
2017-04-15T17:11:18.225Z,3348
2017-04-15T17:12:40.109Z,3224
2017-04-15T17:14:02.599Z,3292
2017-04-15T17:15:24.139Z,3496
2017-04-15T17:16:46.319Z,3628
2017-04-15T17:18:07.854Z,3596
2017-04-15T17:19:29.437Z,3484
2017-04-15T17:20:52.407Z,3364
2017-04-15T17:22:14.725Z,3264
2017-04-15T17:23:35.927Z,3124
2017-04-15T17:24:58.392Z,2964
2017-04-15T17:26:19.973Z,2784
2017-04-15T17:27:42.437Z,2568
2017-04-15T17:29:05.066Z,2424
2017-04-15T17:30:26.610Z,2372
2017-04-15T17:31:48.450Z,2284
2017-04-15T17:33:10.580Z,2184
2017-04-15T17:34:33.112Z,2184
2017-04-15T17:35:54.747Z,2204
2017-04-15T17:37:17.326Z,2244
2017-04-15T17:38:39.906Z,2308
2017-04-15T17:40:01.758Z,2392
2017-04-15T17:41:23.907Z,2392
2017-04-15T17:42:46.386Z,2360
2017-04-15T17:44:08.836Z,2268
2017-04-15T17:45:30.681Z,2184
2017-04-15T17:46:52.607Z,2100
2017-04-15T17:48:14.778Z,2024
2017-04-15T17:49:36.937Z,2012
2017-04-15T17:50:58.918Z,1956
2017-04-15T17:52:21.387Z,1868
2017-04-15T17:53:43.933Z,1732
2017-04-15T17:55:05.477Z,1620
2017-04-15T17:56:27.646Z,1544
2017-04-15T17:57:49.486Z,1472
2017-04-15T17:59:11.756Z,1388
2017-04-15T18:00:34.703Z,1304
2017-04-15T18:01:57.420Z,1212
2017-04-15T18:03:20.016Z,1120
2017-04-15T18:04:42.187Z,1060
2017-04-15T18:06:04.574Z,1128
2017-04-15T18:07:26.838Z,972
2017-04-15T18:08:48.697Z,828
2017-04-15T18:10:11.280Z,756
2017-04-15T18:11:34.024Z,692
2017-04-15T18:12:56.507Z,640
2017-04-15T18:14:18.970Z,580
2017-04-15T18:15:40.960Z,532
2017-04-15T18:17:03.358Z,484
2017-04-15T18:18:25.887Z,436
2017-04-15T18:19:48.101Z,388
2017-04-15T18:21:10.296Z,348
2017-04-15T18:22:33.134Z,316
2017-04-15T18:23:54.766Z,272
2017-04-15T18:25:17.287Z,240
2017-04-15T18:26:39.645Z,212
2017-04-15T18:28:02.067Z,184
2017-04-15T18:29:24.231Z,160
2017-04-15T18:30:46.377Z,136